Aviation Digital Data Service (ADDS)

Output produced by METARs form (0654 UTC 20 March 2019)
found at http://www.aviationweather.gov/metar/data/
 
METAR text: WSSS 200630Z 04009KT 350V080 9999 BKN020 SCT350 32/22 Q1009 NOSIG
Conditions at: WSSS (SINGAPORE/CHANGI, SG) observed 0630 UTC 20 March 2019
Temperature: 32.0°C (90°F)
Dewpoint: 22.0°C (72°F) [RH = 56%]
Pressure (altimeter): 29.79 inches Hg (1009.0 mb)
Winds: from the NE (40 degrees) at 10 MPH (9 knots; 4.6 m/s)
Visibility: 6 or more miles (10+ km)
Ceiling: 2000 feet AGL
Clouds: broken clouds at 2000 feet AGL
scattered clouds at 35000 feet AGL
Weather: no significant weather observed at this time

METAR text: WSSS 200600Z 05011KT 360V080 9999 SCT020 BKN300 32/22 Q1010 NOSIG
Conditions at: WSSS (SINGAPORE/CHANGI, SG) observed 0600 UTC 20 March 2019
Temperature: 32.0°C (90°F)
Dewpoint: 22.0°C (72°F) [RH = 56%]
Pressure (altimeter): 29.82 inches Hg (1010.0 mb)
Winds: from the NE (50 degrees) at 13 MPH (11 knots; 5.7 m/s)
Visibility: 6 or more miles (10+ km)
Ceiling: 30000 feet AGL
Clouds: scattered clouds at 2000 feet AGL
broken clouds at 30000 feet AGL
Weather: no significant weather observed at this time

METAR text: WSSS 200530Z 04010KT 340V080 9999 SCT020 BKN300 32/22 Q1010 NOSIG
Conditions at: WSSS (SINGAPORE/CHANGI, SG) observed 0530 UTC 20 March 2019
Temperature: 32.0°C (90°F)
Dewpoint: 22.0°C (72°F) [RH = 56%]
Pressure (altimeter): 29.82 inches Hg (1010.0 mb)
Winds: from the NE (40 degrees) at 12 MPH (10 knots; 5.1 m/s)
Visibility: 6 or more miles (10+ km)
Ceiling: 30000 feet AGL
Clouds: scattered clouds at 2000 feet AGL
broken clouds at 30000 feet AGL
Weather: no significant weather observed at this time

METAR text: WSSS 200500Z 04010KT 360V080 9999 SCT020 BKN300 33/22 Q1011 NOSIG
Conditions at: WSSS (SINGAPORE/CHANGI, SG) observed 0500 UTC 20 March 2019
Temperature: 33.0°C (91°F)
Dewpoint: 22.0°C (72°F) [RH = 53%]
Pressure (altimeter): 29.85 inches Hg (1011.0 mb)
Winds: from the NE (40 degrees) at 12 MPH (10 knots; 5.1 m/s)
Visibility: 6 or more miles (10+ km)
Ceiling: 30000 feet AGL
Clouds: scattered clouds at 2000 feet AGL
broken clouds at 30000 feet AGL
Weather: no significant weather observed at this time

METAR text: WSSS 200430Z 04008KT 350V080 9999 FEW020 BKN300 33/22 Q1011 NOSIG
Conditions at: WSSS (SINGAPORE/CHANGI, SG) observed 0430 UTC 20 March 2019
Temperature: 33.0°C (91°F)
Dewpoint: 22.0°C (72°F) [RH = 53%]
Pressure (altimeter): 29.85 inches Hg (1011.0 mb)
Winds: from the NE (40 degrees) at 9 MPH (8 knots; 4.1 m/s)
Visibility: 6 or more miles (10+ km)
Ceiling: 30000 feet AGL
Clouds: few clouds at 2000 feet AGL
broken clouds at 30000 feet AGL
Weather: no significant weather observed at this time

METAR text: WSSS 200400Z 05009KT 360V080 9999 FEW020 BKN300 32/22 Q1012 NOSIG
Conditions at: WSSS (SINGAPORE/CHANGI, SG) observed 0400 UTC 20 March 2019
Temperature: 32.0°C (90°F)
Dewpoint: 22.0°C (72°F) [RH = 56%]
Pressure (altimeter): 29.88 inches Hg (1012.0 mb)
Winds: from the NE (50 degrees) at 10 MPH (9 knots; 4.6 m/s)
Visibility: 6 or more miles (10+ km)
Ceiling: 30000 feet AGL
Clouds: few clouds at 2000 feet AGL
broken clouds at 30000 feet AGL
Weather: no significant weather observed at this time

METAR text: WSSS 200330Z 05010KT 340V080 9999 FEW020 BKN300 32/22 Q1012 NOSIG
Conditions at: WSSS (SINGAPORE/CHANGI, SG) observed 0330 UTC 20 March 2019
Temperature: 32.0°C (90°F)
Dewpoint: 22.0°C (72°F) [RH = 56%]
Pressure (altimeter): 29.88 inches Hg (1012.0 mb)
Winds: from the NE (50 degrees) at 12 MPH (10 knots; 5.1 m/s)
Visibility: 6 or more miles (10+ km)
Ceiling: 30000 feet AGL
Clouds: few clouds at 2000 feet AGL
broken clouds at 30000 feet AGL
Weather: no significant weather observed at this time

METAR text: WSSS 200300Z 05010KT 9999 FEW018 BKN300 31/23 Q1012 NOSIG
Conditions at: WSSS (SINGAPORE/CHANGI, SG) observed 0300 UTC 20 March 2019
Temperature: 31.0°C (88°F)
Dewpoint: 23.0°C (73°F) [RH = 63%]
Pressure (altimeter): 29.88 inches Hg (1012.0 mb)
Winds: from the NE (50 degrees) at 12 MPH (10 knots; 5.1 m/s)
Visibility: 6 or more miles (10+ km)
Ceiling: 30000 feet AGL
Clouds: few clouds at 1800 feet AGL
broken clouds at 30000 feet AGL
Weather: no significant weather observed at this time

METAR text: WSSS 200230Z 04008KT 360V070 9999 FEW018 BKN300 31/23 Q1012 NOSIG
Conditions at: WSSS (SINGAPORE/CHANGI, SG) observed 0230 UTC 20 March 2019
Temperature: 31.0°C (88°F)
Dewpoint: 23.0°C (73°F) [RH = 63%]
Pressure (altimeter): 29.88 inches Hg (1012.0 mb)
Winds: from the NE (40 degrees) at 9 MPH (8 knots; 4.1 m/s)
Visibility: 6 or more miles (10+ km)
Ceiling: 30000 feet AGL
Clouds: few clouds at 1800 feet AGL
broken clouds at 30000 feet AGL
Weather: no significant weather observed at this time

METAR text: WSSS 200200Z 02005KT 310V090 9999 FEW018 BKN300 30/23 Q1012 NOSIG
Conditions at: WSSS (SINGAPORE/CHANGI, SG) observed 0200 UTC 20 March 2019
Temperature: 30.0°C (86°F)
Dewpoint: 23.0°C (73°F) [RH = 66%]
Pressure (altimeter): 29.88 inches Hg (1012.0 mb)
Winds: from the NNE (20 degrees) at 6 MPH (5 knots; 2.6 m/s)
Visibility: 6 or more miles (10+ km)
Ceiling: 30000 feet AGL
Clouds: few clouds at 1800 feet AGL
broken clouds at 30000 feet AGL
Weather: no significant weather observed at this time

METAR text: WSSS 200130Z 03007KT 340V080 9999 FEW018 BKN350 29/22 Q1012 NOSIG
Conditions at: WSSS (SINGAPORE/CHANGI, SG) observed 0130 UTC 20 March 2019
Temperature: 29.0°C (84°F)
Dewpoint: 22.0°C (72°F) [RH = 66%]
Pressure (altimeter): 29.88 inches Hg (1012.0 mb)
Winds: from the NNE (30 degrees) at 8 MPH (7 knots; 3.6 m/s)
Visibility: 6 or more miles (10+ km)
Ceiling: 35000 feet AGL
Clouds: few clouds at 1800 feet AGL
broken clouds at 35000 feet AGL
Weather: no significant weather observed at this time

METAR text: WSSS 200100Z 04008KT 010V080 9999 FEW018 BKN350 29/23 Q1011 NOSIG
Conditions at: WSSS (SINGAPORE/CHANGI, SG) observed 0100 UTC 20 March 2019
Temperature: 29.0°C (84°F)
Dewpoint: 23.0°C (73°F) [RH = 70%]
Pressure (altimeter): 29.85 inches Hg (1011.0 mb)
Winds: from the NE (40 degrees) at 9 MPH (8 knots; 4.1 m/s)
Visibility: 6 or more miles (10+ km)
Ceiling: 35000 feet AGL
Clouds: few clouds at 1800 feet AGL
broken clouds at 35000 feet AGL
Weather: no significant weather observed at this time

METAR text: WSSS 200030Z 04008KT 010V080 8000 FEW018 BKN350 28/23 Q1011 NOSIG
Conditions at: WSSS (SINGAPORE/CHANGI, SG) observed 0030 UTC 20 March 2019
Temperature: 28.0°C (82°F)
Dewpoint: 23.0°C (73°F) [RH = 74%]
Pressure (altimeter): 29.85 inches Hg (1011.0 mb)
Winds: from the NE (40 degrees) at 9 MPH (8 knots; 4.1 m/s)
Visibility: 5 miles ( 8 km)
Ceiling: 35000 feet AGL
Clouds: few clouds at 1800 feet AGL
broken clouds at 35000 feet AGL
Weather: no significant weather observed at this time

METAR text: WSSS 200000Z 04007KT 010V070 8000 FEW018 BKN350 27/23 Q1010 NOSIG
Conditions at: WSSS (SINGAPORE/CHANGI, SG) observed 0000 UTC 20 March 2019
Temperature: 27.0°C (81°F)
Dewpoint: 23.0°C (73°F) [RH = 79%]
Pressure (altimeter): 29.82 inches Hg (1010.0 mb)
Winds: from the NE (40 degrees) at 8 MPH (7 knots; 3.6 m/s)
Visibility: 5 miles ( 8 km)
Ceiling: 35000 feet AGL
Clouds: few clouds at 1800 feet AGL
broken clouds at 35000 feet AGL
Weather: no significant weather observed at this time

METAR text: WSSS 192330Z 04006KT 010V070 9999 FEW018 BKN350 27/23 Q1010 NOSIG
Conditions at: WSSS (SINGAPORE/CHANGI, SG) observed 2330 UTC 19 March 2019
Temperature: 27.0°C (81°F)
Dewpoint: 23.0°C (73°F) [RH = 79%]
Pressure (altimeter): 29.82 inches Hg (1010.0 mb)
Winds: from the NE (40 degrees) at 7 MPH (6 knots; 3.1 m/s)
Visibility: 6 or more miles (10+ km)
Ceiling: 35000 feet AGL
Clouds: few clouds at 1800 feet AGL
broken clouds at 35000 feet AGL
Weather: no significant weather observed at this time

METAR text: WSSS 192300Z 02004KT 330V070 9999 FEW018 BKN350 27/23 Q1010 NOSIG
Conditions at: WSSS (SINGAPORE/CHANGI, SG) observed 2300 UTC 19 March 2019
Temperature: 27.0°C (81°F)
Dewpoint: 23.0°C (73°F) [RH = 79%]
Pressure (altimeter): 29.82 inches Hg (1010.0 mb)
Winds: from the NNE (20 degrees) at 5 MPH (4 knots; 2.1 m/s)
Visibility: 6 or more miles (10+ km)
Ceiling: 35000 feet AGL
Clouds: few clouds at 1800 feet AGL
broken clouds at 35000 feet AGL
Weather: no significant weather observed at this time

METAR text: WSSS 192230Z VRB02KT 9999 FEW018 BKN300 27/24 Q1010 NOSIG
Conditions at: WSSS (SINGAPORE/CHANGI, SG) observed 2230 UTC 19 March 2019
Temperature: 27.0°C (81°F)
Dewpoint: 24.0°C (75°F) [RH = 84%]
Pressure (altimeter): 29.82 inches Hg (1010.0 mb)
Winds: variable direction winds at 2 MPH (2 knots; 1.0 m/s)
Visibility: 6 or more miles (10+ km)
Ceiling: 30000 feet AGL
Clouds: few clouds at 1800 feet AGL
broken clouds at 30000 feet AGL
Weather: no significant weather observed at this time

METAR text: WSSS 192200Z 02003KT 310V040 9999 FEW018 BKN300 27/24 Q1010 NOSIG
Conditions at: WSSS (SINGAPORE/CHANGI, SG) observed 2200 UTC 19 March 2019
Temperature: 27.0°C (81°F)
Dewpoint: 24.0°C (75°F) [RH = 84%]
Pressure (altimeter): 29.82 inches Hg (1010.0 mb)
Winds: from the NNE (20 degrees) at 3 MPH (3 knots; 1.5 m/s)
Visibility: 6 or more miles (10+ km)
Ceiling: 30000 feet AGL
Clouds: few clouds at 1800 feet AGL
broken clouds at 30000 feet AGL
Weather: no significant weather observed at this time

METAR text: WSSS 192130Z VRB02KT 8000 FEW018 BKN300 27/24 Q1010 NOSIG
Conditions at: WSSS (SINGAPORE/CHANGI, SG) observed 2130 UTC 19 March 2019
Temperature: 27.0°C (81°F)
Dewpoint: 24.0°C (75°F) [RH = 84%]
Pressure (altimeter): 29.82 inches Hg (1010.0 mb)
Winds: variable direction winds at 2 MPH (2 knots; 1.0 m/s)
Visibility: 5 miles ( 8 km)
Ceiling: 30000 feet AGL
Clouds: few clouds at 1800 feet AGL
broken clouds at 30000 feet AGL
Weather: no significant weather observed at this time

METAR text: WSSS 192100Z 02003KT 330V060 9000 FEW018 BKN300 27/24 Q1010 NOSIG
Conditions at: WSSS (SINGAPORE/CHANGI, SG) observed 2100 UTC 19 March 2019
Temperature: 27.0°C (81°F)
Dewpoint: 24.0°C (75°F) [RH = 84%]
Pressure (altimeter): 29.82 inches Hg (1010.0 mb)
Winds: from the NNE (20 degrees) at 3 MPH (3 knots; 1.5 m/s)
Visibility: 6 miles ( 9 km)
Ceiling: 30000 feet AGL
Clouds: few clouds at 1800 feet AGL
broken clouds at 30000 feet AGL
Weather: no significant weather observed at this time

METAR text: WSSS 192030Z 34003KT 280V060 9000 FEW018 BKN300 27/24 Q1010 NOSIG
Conditions at: WSSS (SINGAPORE/CHANGI, SG) observed 2030 UTC 19 March 2019
Temperature: 27.0°C (81°F)
Dewpoint: 24.0°C (75°F) [RH = 84%]
Pressure (altimeter): 29.82 inches Hg (1010.0 mb)
Winds: from the NNW (340 degrees) at 3 MPH (3 knots; 1.5 m/s)
Visibility: 6 miles ( 9 km)
Ceiling: 30000 feet AGL
Clouds: few clouds at 1800 feet AGL
broken clouds at 30000 feet AGL
Weather: no significant weather observed at this time

METAR text: WSSS 192000Z 01003KT 300V080 9000 FEW018 BKN300 27/24 Q1010 NOSIG
Conditions at: WSSS (SINGAPORE/CHANGI, SG) observed 2000 UTC 19 March 2019
Temperature: 27.0°C (81°F)
Dewpoint: 24.0°C (75°F) [RH = 84%]
Pressure (altimeter): 29.82 inches Hg (1010.0 mb)
Winds: from the N (10 degrees) at 3 MPH (3 knots; 1.5 m/s)
Visibility: 6 miles ( 9 km)
Ceiling: 30000 feet AGL
Clouds: few clouds at 1800 feet AGL
broken clouds at 30000 feet AGL
Weather: no significant weather observed at this time

METAR text: WSSS 191930Z VRB02KT 9999 FEW018 SCT180 BKN300 27/24 Q1010 NOSIG
Conditions at: WSSS (SINGAPORE/CHANGI, SG) observed 1930 UTC 19 March 2019
Temperature: 27.0°C (81°F)
Dewpoint: 24.0°C (75°F) [RH = 84%]
Pressure (altimeter): 29.82 inches Hg (1010.0 mb)
Winds: variable direction winds at 2 MPH (2 knots; 1.0 m/s)
Visibility: 6 or more miles (10+ km)
Ceiling: 30000 feet AGL
Clouds: few clouds at 1800 feet AGL
scattered clouds at 18000 feet AGL
broken clouds at 30000 feet AGL
Weather: no significant weather observed at this time

METAR text: WSSS 191900Z 03003KT 340V060 9999 FEW018 SCT180 BKN300 27/24 Q1010 NOSIG
Conditions at: WSSS (SINGAPORE/CHANGI, SG) observed 1900 UTC 19 March 2019
Temperature: 27.0°C (81°F)
Dewpoint: 24.0°C (75°F) [RH = 84%]
Pressure (altimeter): 29.82 inches Hg (1010.0 mb)
Winds: from the NNE (30 degrees) at 3 MPH (3 knots; 1.5 m/s)
Visibility: 6 or more miles (10+ km)
Ceiling: 30000 feet AGL
Clouds: few clouds at 1800 feet AGL
scattered clouds at 18000 feet AGL
broken clouds at 30000 feet AGL
Weather: no significant weather observed at this time

METAR text: WSSS 191830Z 02003KT 340V070 9999 FEW018 BKN300 27/24 Q1011 NOSIG
Conditions at: WSSS (SINGAPORE/CHANGI, SG) observed 1830 UTC 19 March 2019
Temperature: 27.0°C (81°F)
Dewpoint: 24.0°C (75°F) [RH = 84%]
Pressure (altimeter): 29.85 inches Hg (1011.0 mb)
Winds: from the NNE (20 degrees) at 3 MPH (3 knots; 1.5 m/s)
Visibility: 6 or more miles (10+ km)
Ceiling: 30000 feet AGL
Clouds: few clouds at 1800 feet AGL
broken clouds at 30000 feet AGL
Weather: no significant weather observed at this time

METAR text: WSSS 191800Z 03003KT 010V070 9999 FEW018 BKN300 28/24 Q1011 NOSIG
Conditions at: WSSS (SINGAPORE/CHANGI, SG) observed 1800 UTC 19 March 2019
Temperature: 28.0°C (82°F)
Dewpoint: 24.0°C (75°F) [RH = 79%]
Pressure (altimeter): 29.85 inches Hg (1011.0 mb)
Winds: from the NNE (30 degrees) at 3 MPH (3 knots; 1.5 m/s)
Visibility: 6 or more miles (10+ km)
Ceiling: 30000 feet AGL
Clouds: few clouds at 1800 feet AGL
broken clouds at 30000 feet AGL
Weather: no significant weather observed at this time

METAR text: WSSS 191730Z 03004KT 360V080 9999 FEW018 BKN300 28/24 Q1011 NOSIG
Conditions at: WSSS (SINGAPORE/CHANGI, SG) observed 1730 UTC 19 March 2019
Temperature: 28.0°C (82°F)
Dewpoint: 24.0°C (75°F) [RH = 79%]
Pressure (altimeter): 29.85 inches Hg (1011.0 mb)
Winds: from the NNE (30 degrees) at 5 MPH (4 knots; 2.1 m/s)
Visibility: 6 or more miles (10+ km)
Ceiling: 30000 feet AGL
Clouds: few clouds at 1800 feet AGL
broken clouds at 30000 feet AGL
Weather: no significant weather observed at this time

METAR text: WSSS 191700Z 04003KT 360V070 9999 FEW018 BKN150 BKN300 28/24 Q1011 NOSIG
Conditions at: WSSS (SINGAPORE/CHANGI, SG) observed 1700 UTC 19 March 2019
Temperature: 28.0°C (82°F)
Dewpoint: 24.0°C (75°F) [RH = 79%]
Pressure (altimeter): 29.85 inches Hg (1011.0 mb)
Winds: from the NE (40 degrees) at 3 MPH (3 knots; 1.5 m/s)
Visibility: 6 or more miles (10+ km)
Ceiling: 15000 feet AGL
Clouds: few clouds at 1800 feet AGL
broken clouds at 15000 feet AGL
broken clouds at 30000 feet AGL
Weather: no significant weather observed at this time

METAR text: WSSS 191630Z 07004KT 9999 FEW018 BKN150 BKN300 28/24 Q1012 NOSIG
Conditions at: WSSS (SINGAPORE/CHANGI, SG) observed 1630 UTC 19 March 2019
Temperature: 28.0°C (82°F)
Dewpoint: 24.0°C (75°F) [RH = 79%]
Pressure (altimeter): 29.88 inches Hg (1012.0 mb)
Winds: from the ENE (70 degrees) at 5 MPH (4 knots; 2.1 m/s)
Visibility: 6 or more miles (10+ km)
Ceiling: 15000 feet AGL
Clouds: few clouds at 1800 feet AGL
broken clouds at 15000 feet AGL
broken clouds at 30000 feet AGL
Weather: no significant weather observed at this time

METAR text: WSSS 191600Z 06006KT 020V080 9999 FEW018 SCT150 BKN300 28/23 Q1011 NOSIG
Conditions at: WSSS (SINGAPORE/CHANGI, SG) observed 1600 UTC 19 March 2019
Temperature: 28.0°C (82°F)
Dewpoint: 23.0°C (73°F) [RH = 74%]
Pressure (altimeter): 29.85 inches Hg (1011.0 mb)
Winds: from the ENE (60 degrees) at 7 MPH (6 knots; 3.1 m/s)
Visibility: 6 or more miles (10+ km)
Ceiling: 30000 feet AGL
Clouds: few clouds at 1800 feet AGL
scattered clouds at 15000 feet AGL
broken clouds at 30000 feet AGL
Weather: no significant weather observed at this time

METAR text: WSSS 191530Z 05007KT 030V090 9999 FEW018 SCT150 BKN300 28/23 Q1012 NOSIG
Conditions at: WSSS (SINGAPORE/CHANGI, SG) observed 1530 UTC 19 March 2019
Temperature: 28.0°C (82°F)
Dewpoint: 23.0°C (73°F) [RH = 74%]
Pressure (altimeter): 29.88 inches Hg (1012.0 mb)
Winds: from the NE (50 degrees) at 8 MPH (7 knots; 3.6 m/s)
Visibility: 6 or more miles (10+ km)
Ceiling: 30000 feet AGL
Clouds: few clouds at 1800 feet AGL
scattered clouds at 15000 feet AGL
broken clouds at 30000 feet AGL
Weather: no significant weather observed at this time

METAR text: WSSS 191500Z 06007KT 9999 FEW018 BKN300 28/23 Q1011 NOSIG
Conditions at: WSSS (SINGAPORE/CHANGI, SG) observed 1500 UTC 19 March 2019
Temperature: 28.0°C (82°F)
Dewpoint: 23.0°C (73°F) [RH = 74%]
Pressure (altimeter): 29.85 inches Hg (1011.0 mb)
Winds: from the ENE (60 degrees) at 8 MPH (7 knots; 3.6 m/s)
Visibility: 6 or more miles (10+ km)
Ceiling: 30000 feet AGL
Clouds: few clouds at 1800 feet AGL
broken clouds at 30000 feet AGL
Weather: no significant weather observed at this time

METAR text: WSSS 191430Z 05004KT 030V100 9999 FEW018 BKN300 28/23 Q1011 NOSIG
Conditions at: WSSS (SINGAPORE/CHANGI, SG) observed 1430 UTC 19 March 2019
Temperature: 28.0°C (82°F)
Dewpoint: 23.0°C (73°F) [RH = 74%]
Pressure (altimeter): 29.85 inches Hg (1011.0 mb)
Winds: from the NE (50 degrees) at 5 MPH (4 knots; 2.1 m/s)
Visibility: 6 or more miles (10+ km)
Ceiling: 30000 feet AGL
Clouds: few clouds at 1800 feet AGL
broken clouds at 30000 feet AGL
Weather: no significant weather observed at this time

METAR text: WSSS 191400Z 05006KT 010V070 9999 FEW018 BKN300 28/23 Q1011 NOSIG
Conditions at: WSSS (SINGAPORE/CHANGI, SG) observed 1400 UTC 19 March 2019
Temperature: 28.0°C (82°F)
Dewpoint: 23.0°C (73°F) [RH = 74%]
Pressure (altimeter): 29.85 inches Hg (1011.0 mb)
Winds: from the NE (50 degrees) at 7 MPH (6 knots; 3.1 m/s)
Visibility: 6 or more miles (10+ km)
Ceiling: 30000 feet AGL
Clouds: few clouds at 1800 feet AGL
broken clouds at 30000 feet AGL
Weather: no significant weather observed at this time

METAR text: WSSS 191330Z 06007KT 010V070 9999 FEW018 BKN300 28/23 Q1010 NOSIG
Conditions at: WSSS (SINGAPORE/CHANGI, SG) observed 1330 UTC 19 March 2019
Temperature: 28.0°C (82°F)
Dewpoint: 23.0°C (73°F) [RH = 74%]
Pressure (altimeter): 29.82 inches Hg (1010.0 mb)
Winds: from the ENE (60 degrees) at 8 MPH (7 knots; 3.6 m/s)
Visibility: 6 or more miles (10+ km)
Ceiling: 30000 feet AGL
Clouds: few clouds at 1800 feet AGL
broken clouds at 30000 feet AGL
Weather: no significant weather observed at this time

METAR text: WSSS 191300Z 06008KT 9999 FEW018 BKN300 28/23 Q1010 NOSIG
Conditions at: WSSS (SINGAPORE/CHANGI, SG) observed 1300 UTC 19 March 2019
Temperature: 28.0°C (82°F)
Dewpoint: 23.0°C (73°F) [RH = 74%]
Pressure (altimeter): 29.82 inches Hg (1010.0 mb)
Winds: from the ENE (60 degrees) at 9 MPH (8 knots; 4.1 m/s)
Visibility: 6 or more miles (10+ km)
Ceiling: 30000 feet AGL
Clouds: few clouds at 1800 feet AGL
broken clouds at 30000 feet AGL
Weather: no significant weather observed at this time

METAR text: WSSS 191230Z 06009KT 9999 FEW018 BKN300 28/23 Q1009 NOSIG
Conditions at: WSSS (SINGAPORE/CHANGI, SG) observed 1230 UTC 19 March 2019
Temperature: 28.0°C (82°F)
Dewpoint: 23.0°C (73°F) [RH = 74%]
Pressure (altimeter): 29.79 inches Hg (1009.0 mb)
Winds: from the ENE (60 degrees) at 10 MPH (9 knots; 4.6 m/s)
Visibility: 6 or more miles (10+ km)
Ceiling: 30000 feet AGL
Clouds: few clouds at 1800 feet AGL
broken clouds at 30000 feet AGL
Weather: no significant weather observed at this time

METAR text: WSSS 191200Z 06009KT 9999 FEW020 BKN300 28/23 Q1009 NOSIG
Conditions at: WSSS (SINGAPORE/CHANGI, SG) observed 1200 UTC 19 March 2019
Temperature: 28.0°C (82°F)
Dewpoint: 23.0°C (73°F) [RH = 74%]
Pressure (altimeter): 29.79 inches Hg (1009.0 mb)
Winds: from the ENE (60 degrees) at 10 MPH (9 knots; 4.6 m/s)
Visibility: 6 or more miles (10+ km)
Ceiling: 30000 feet AGL
Clouds: few clouds at 2000 feet AGL
broken clouds at 30000 feet AGL
Weather: no significant weather observed at this time

METAR text: WSSS 191130Z 05010KT 9999 FEW020 BKN350 29/23 Q1009 NOSIG
Conditions at: WSSS (SINGAPORE/CHANGI, SG) observed 1130 UTC 19 March 2019
Temperature: 29.0°C (84°F)
Dewpoint: 23.0°C (73°F) [RH = 70%]
Pressure (altimeter): 29.79 inches Hg (1009.0 mb)
Winds: from the NE (50 degrees) at 12 MPH (10 knots; 5.1 m/s)
Visibility: 6 or more miles (10+ km)
Ceiling: 35000 feet AGL
Clouds: few clouds at 2000 feet AGL
broken clouds at 35000 feet AGL
Weather: no significant weather observed at this time

METAR text: WSSS 191100Z 05011KT 9999 FEW022 BKN350 29/22 Q1008 NOSIG
Conditions at: WSSS (SINGAPORE/CHANGI, SG) observed 1100 UTC 19 March 2019
Temperature: 29.0°C (84°F)
Dewpoint: 22.0°C (72°F) [RH = 66%]
Pressure (altimeter): 29.76 inches Hg (1008.0 mb)
Winds: from the NE (50 degrees) at 13 MPH (11 knots; 5.7 m/s)
Visibility: 6 or more miles (10+ km)
Ceiling: 35000 feet AGL
Clouds: few clouds at 2200 feet AGL
broken clouds at 35000 feet AGL
Weather: no significant weather observed at this time

METAR text: WSSS 191030Z 06012KT 9999 FEW024 BKN350 30/22 Q1008 NOSIG
Conditions at: WSSS (SINGAPORE/CHANGI, SG) observed 1030 UTC 19 March 2019
Temperature: 30.0°C (86°F)
Dewpoint: 22.0°C (72°F) [RH = 62%]
Pressure (altimeter): 29.76 inches Hg (1008.0 mb)
Winds: from the ENE (60 degrees) at 14 MPH (12 knots; 6.2 m/s)
Visibility: 6 or more miles (10+ km)
Ceiling: 35000 feet AGL
Clouds: few clouds at 2400 feet AGL
broken clouds at 35000 feet AGL
Weather: no significant weather observed at this time

METAR text: WSSS 191000Z 05012KT 030V090 9999 FEW024 BKN350 31/22 Q1008 NOSIG
Conditions at: WSSS (SINGAPORE/CHANGI, SG) observed 1000 UTC 19 March 2019
Temperature: 31.0°C (88°F)
Dewpoint: 22.0°C (72°F) [RH = 59%]
Pressure (altimeter): 29.76 inches Hg (1008.0 mb)
Winds: from the NE (50 degrees) at 14 MPH (12 knots; 6.2 m/s)
Visibility: 6 or more miles (10+ km)
Ceiling: 35000 feet AGL
Clouds: few clouds at 2400 feet AGL
broken clouds at 35000 feet AGL
Weather: no significant weather observed at this time

METAR text: WSSS 190930Z 06011KT 9999 FEW024 BKN300 32/21 Q1008 NOSIG
Conditions at: WSSS (SINGAPORE/CHANGI, SG) observed 0930 UTC 19 March 2019
Temperature: 32.0°C (90°F)
Dewpoint: 21.0°C (70°F) [RH = 52%]
Pressure (altimeter): 29.76 inches Hg (1008.0 mb)
Winds: from the ENE (60 degrees) at 13 MPH (11 knots; 5.7 m/s)
Visibility: 6 or more miles (10+ km)
Ceiling: 30000 feet AGL
Clouds: few clouds at 2400 feet AGL
broken clouds at 30000 feet AGL
Weather: no significant weather observed at this time

METAR text: WSSS 190900Z 05012KT 020V080 9999 FEW024 BKN300 31/21 Q1008 NOSIG
Conditions at: WSSS (SINGAPORE/CHANGI, SG) observed 0900 UTC 19 March 2019
Temperature: 31.0°C (88°F)
Dewpoint: 21.0°C (70°F) [RH = 55%]
Pressure (altimeter): 29.76 inches Hg (1008.0 mb)
Winds: from the NE (50 degrees) at 14 MPH (12 knots; 6.2 m/s)
Visibility: 6 or more miles (10+ km)
Ceiling: 30000 feet AGL
Clouds: few clouds at 2400 feet AGL
broken clouds at 30000 feet AGL
Weather: no significant weather observed at this time

METAR text: WSSS 190830Z 05011KT 020V080 9999 FEW022 BKN300 33/21 Q1008 NOSIG
Conditions at: WSSS (SINGAPORE/CHANGI, SG) observed 0830 UTC 19 March 2019
Temperature: 33.0°C (91°F)
Dewpoint: 21.0°C (70°F) [RH = 49%]
Pressure (altimeter): 29.76 inches Hg (1008.0 mb)
Winds: from the NE (50 degrees) at 13 MPH (11 knots; 5.7 m/s)
Visibility: 6 or more miles (10+ km)
Ceiling: 30000 feet AGL
Clouds: few clouds at 2200 feet AGL
broken clouds at 30000 feet AGL
Weather: no significant weather observed at this time

METAR text: WSSS 190800Z 06011KT 9999 SCT022 BKN300 33/21 Q1008 NOSIG
Conditions at: WSSS (SINGAPORE/CHANGI, SG) observed 0800 UTC 19 March 2019
Temperature: 33.0°C (91°F)
Dewpoint: 21.0°C (70°F) [RH = 49%]
Pressure (altimeter): 29.76 inches Hg (1008.0 mb)
Winds: from the ENE (60 degrees) at 13 MPH (11 knots; 5.7 m/s)
Visibility: 6 or more miles (10+ km)
Ceiling: 30000 feet AGL
Clouds: scattered clouds at 2200 feet AGL
broken clouds at 30000 feet AGL
Weather: no significant weather observed at this time

METAR text: WSSS 190730Z 04010KT 360V070 9999 SCT022 BKN300 33/21 Q1009 NOSIG
Conditions at: WSSS (SINGAPORE/CHANGI, SG) observed 0730 UTC 19 March 2019
Temperature: 33.0°C (91°F)
Dewpoint: 21.0°C (70°F) [RH = 49%]
Pressure (altimeter): 29.79 inches Hg (1009.0 mb)
Winds: from the NE (40 degrees) at 12 MPH (10 knots; 5.1 m/s)
Visibility: 6 or more miles (10+ km)
Ceiling: 30000 feet AGL
Clouds: scattered clouds at 2200 feet AGL
broken clouds at 30000 feet AGL
Weather: no significant weather observed at this time

METAR text: WSSS 190700Z 05010KT 010V090 9999 SCT022 BKN300 33/22 Q1009 NOSIG
Conditions at: WSSS (SINGAPORE/CHANGI, SG) observed 0700 UTC 19 March 2019
Temperature: 33.0°C (91°F)
Dewpoint: 22.0°C (72°F) [RH = 53%]
Pressure (altimeter): 29.79 inches Hg (1009.0 mb)
Winds: from the NE (50 degrees) at 12 MPH (10 knots; 5.1 m/s)
Visibility: 6 or more miles (10+ km)
Ceiling: 30000 feet AGL
Clouds: scattered clouds at 2200 feet AGL
broken clouds at 30000 feet AGL
Weather: no significant weather observed at this time

METAR text: WSSS 190630Z 04009KT 350V100 9999 SCT022 BKN300 32/21 Q1009 NOSIG
Conditions at: WSSS (SINGAPORE/CHANGI, SG) observed 0630 UTC 19 March 2019
Temperature: 32.0°C (90°F)
Dewpoint: 21.0°C (70°F) [RH = 52%]
Pressure (altimeter): 29.79 inches Hg (1009.0 mb)
Winds: from the NE (40 degrees) at 10 MPH (9 knots; 4.6 m/s)
Visibility: 6 or more miles (10+ km)
Ceiling: 30000 feet AGL
Clouds: scattered clouds at 2200 feet AGL
broken clouds at 30000 feet AGL
Weather: no significant weather observed at this time

METAR text: WSSS 190600Z 03008KT 350V090 9999 SCT020 BKN300 33/21 Q1010 NOSIG
Conditions at: WSSS (SINGAPORE/CHANGI, SG) observed 0600 UTC 19 March 2019
Temperature: 33.0°C (91°F)
Dewpoint: 21.0°C (70°F) [RH = 49%]
Pressure (altimeter): 29.82 inches Hg (1010.0 mb)
Winds: from the NNE (30 degrees) at 9 MPH (8 knots; 4.1 m/s)
Visibility: 6 or more miles (10+ km)
Ceiling: 30000 feet AGL
Clouds: scattered clouds at 2000 feet AGL
broken clouds at 30000 feet AGL
Weather: no significant weather observed at this time

METAR text: WSSS 190530Z 04008KT 320V120 9999 SCT020 BKN300 32/21 Q1011 NOSIG
Conditions at: WSSS (SINGAPORE/CHANGI, SG) observed 0530 UTC 19 March 2019
Temperature: 32.0°C (90°F)
Dewpoint: 21.0°C (70°F) [RH = 52%]
Pressure (altimeter): 29.85 inches Hg (1011.0 mb)
Winds: from the NE (40 degrees) at 9 MPH (8 knots; 4.1 m/s)
Visibility: 6 or more miles (10+ km)
Ceiling: 30000 feet AGL
Clouds: scattered clouds at 2000 feet AGL
broken clouds at 30000 feet AGL
Weather: no significant weather observed at this time

METAR text: WSSS 190500Z 03006KT 320V080 9999 SCT020 BKN300 33/22 Q1011 NOSIG
Conditions at: WSSS (SINGAPORE/CHANGI, SG) observed 0500 UTC 19 March 2019
Temperature: 33.0°C (91°F)
Dewpoint: 22.0°C (72°F) [RH = 53%]
Pressure (altimeter): 29.85 inches Hg (1011.0 mb)
Winds: from the NNE (30 degrees) at 7 MPH (6 knots; 3.1 m/s)
Visibility: 6 or more miles (10+ km)
Ceiling: 30000 feet AGL
Clouds: scattered clouds at 2000 feet AGL
broken clouds at 30000 feet AGL
Weather: no significant weather observed at this time

METAR text: WSSS 190430Z 01005KT 300V080 9999 SCT020 BKN300 33/22 Q1012 NOSIG
Conditions at: WSSS (SINGAPORE/CHANGI, SG) observed 0430 UTC 19 March 2019
Temperature: 33.0°C (91°F)
Dewpoint: 22.0°C (72°F) [RH = 53%]
Pressure (altimeter): 29.88 inches Hg (1012.0 mb)
Winds: from the N (10 degrees) at 6 MPH (5 knots; 2.6 m/s)
Visibility: 6 or more miles (10+ km)
Ceiling: 30000 feet AGL
Clouds: scattered clouds at 2000 feet AGL
broken clouds at 30000 feet AGL
Weather: no significant weather observed at this time

METAR text: WSSS 190400Z 04006KT 290V090 9999 SCT020 BKN300 33/22 Q1012 NOSIG
Conditions at: WSSS (SINGAPORE/CHANGI, SG) observed 0400 UTC 19 March 2019
Temperature: 33.0°C (91°F)
Dewpoint: 22.0°C (72°F) [RH = 53%]
Pressure (altimeter): 29.88 inches Hg (1012.0 mb)
Winds: from the NE (40 degrees) at 7 MPH (6 knots; 3.1 m/s)
Visibility: 6 or more miles (10+ km)
Ceiling: 30000 feet AGL
Clouds: scattered clouds at 2000 feet AGL
broken clouds at 30000 feet AGL
Weather: no significant weather observed at this time

METAR text: WSSS 190330Z 02006KT 310V090 9999 FEW020 BKN300 32/22 Q1013 NOSIG
Conditions at: WSSS (SINGAPORE/CHANGI, SG) observed 0330 UTC 19 March 2019
Temperature: 32.0°C (90°F)
Dewpoint: 22.0°C (72°F) [RH = 56%]
Pressure (altimeter): 29.91 inches Hg (1013.0 mb)
Winds: from the NNE (20 degrees) at 7 MPH (6 knots; 3.1 m/s)
Visibility: 6 or more miles (10+ km)
Ceiling: 30000 feet AGL
Clouds: few clouds at 2000 feet AGL
broken clouds at 30000 feet AGL
Weather: no significant weather observed at this time

METAR text: WSSS 190300Z 04007KT 290V080 9999 FEW020 BKN300 31/22 Q1012 NOSIG
Conditions at: WSSS (SINGAPORE/CHANGI, SG) observed 0300 UTC 19 March 2019
Temperature: 31.0°C (88°F)
Dewpoint: 22.0°C (72°F) [RH = 59%]
Pressure (altimeter): 29.88 inches Hg (1012.0 mb)
Winds: from the NE (40 degrees) at 8 MPH (7 knots; 3.6 m/s)
Visibility: 6 or more miles (10+ km)
Ceiling: 30000 feet AGL
Clouds: few clouds at 2000 feet AGL
broken clouds at 30000 feet AGL
Weather: no significant weather observed at this time

METAR text: WSSS 190230Z 02006KT 310V080 9999 FEW020 BKN300 30/22 Q1013 NOSIG
Conditions at: WSSS (SINGAPORE/CHANGI, SG) observed 0230 UTC 19 March 2019
Temperature: 30.0°C (86°F)
Dewpoint: 22.0°C (72°F) [RH = 62%]
Pressure (altimeter): 29.91 inches Hg (1013.0 mb)
Winds: from the NNE (20 degrees) at 7 MPH (6 knots; 3.1 m/s)
Visibility: 6 or more miles (10+ km)
Ceiling: 30000 feet AGL
Clouds: few clouds at 2000 feet AGL
broken clouds at 30000 feet AGL
Weather: no significant weather observed at this time

METAR text: WSSS 190200Z 03005KT 300V100 9999 FEW020 BKN300 30/22 Q1012 NOSIG
Conditions at: WSSS (SINGAPORE/CHANGI, SG) observed 0200 UTC 19 March 2019
Temperature: 30.0°C (86°F)
Dewpoint: 22.0°C (72°F) [RH = 62%]
Pressure (altimeter): 29.88 inches Hg (1012.0 mb)
Winds: from the NNE (30 degrees) at 6 MPH (5 knots; 2.6 m/s)
Visibility: 6 or more miles (10+ km)
Ceiling: 30000 feet AGL
Clouds: few clouds at 2000 feet AGL
broken clouds at 30000 feet AGL
Weather: no significant weather observed at this time

METAR text: WSSS 190130Z 01004KT 290V080 9999 FEW020 BKN300 29/23 Q1012 NOSIG
Conditions at: WSSS (SINGAPORE/CHANGI, SG) observed 0130 UTC 19 March 2019
Temperature: 29.0°C (84°F)
Dewpoint: 23.0°C (73°F) [RH = 70%]
Pressure (altimeter): 29.88 inches Hg (1012.0 mb)
Winds: from the N (10 degrees) at 5 MPH (4 knots; 2.1 m/s)
Visibility: 6 or more miles (10+ km)
Ceiling: 30000 feet AGL
Clouds: few clouds at 2000 feet AGL
broken clouds at 30000 feet AGL
Weather: no significant weather observed at this time

METAR text: WSSS 190100Z 03004KT 310V090 9999 FEW020 BKN300 29/23 Q1012 NOSIG
Conditions at: WSSS (SINGAPORE/CHANGI, SG) observed 0100 UTC 19 March 2019
Temperature: 29.0°C (84°F)
Dewpoint: 23.0°C (73°F) [RH = 70%]
Pressure (altimeter): 29.88 inches Hg (1012.0 mb)
Winds: from the NNE (30 degrees) at 5 MPH (4 knots; 2.1 m/s)
Visibility: 6 or more miles (10+ km)
Ceiling: 30000 feet AGL
Clouds: few clouds at 2000 feet AGL
broken clouds at 30000 feet AGL
Weather: no significant weather observed at this time

METAR text: WSSS 190030Z 01003KT 270V050 8000 FEW020 BKN300 27/23 Q1011 NOSIG
Conditions at: WSSS (SINGAPORE/CHANGI, SG) observed 0030 UTC 19 March 2019
Temperature: 27.0°C (81°F)
Dewpoint: 23.0°C (73°F) [RH = 79%]
Pressure (altimeter): 29.85 inches Hg (1011.0 mb)
Winds: from the N (10 degrees) at 3 MPH (3 knots; 1.5 m/s)
Visibility: 5 miles ( 8 km)
Ceiling: 30000 feet AGL
Clouds: few clouds at 2000 feet AGL
broken clouds at 30000 feet AGL
Weather: no significant weather observed at this time

METAR text: WSSS 190000Z 01003KT 300V070 7000 FEW022 BKN300 27/23 Q1011 NOSIG
Conditions at: WSSS (SINGAPORE/CHANGI, SG) observed 0000 UTC 19 March 2019
Temperature: 27.0°C (81°F)
Dewpoint: 23.0°C (73°F) [RH = 79%]
Pressure (altimeter): 29.85 inches Hg (1011.0 mb)
Winds: from the N (10 degrees) at 3 MPH (3 knots; 1.5 m/s)
Visibility: 4 miles ( 7 km)
Ceiling: 30000 feet AGL
Clouds: few clouds at 2200 feet AGL
broken clouds at 30000 feet AGL
Weather: no significant weather observed at this time

METAR text: WSSS 182330Z VRB02KT 7000 FEW022 BKN300 26/22 Q1011 NOSIG
Conditions at: WSSS (SINGAPORE/CHANGI, SG) observed 2330 UTC 18 March 2019
Temperature: 26.0°C (79°F)
Dewpoint: 22.0°C (72°F) [RH = 79%]
Pressure (altimeter): 29.85 inches Hg (1011.0 mb)
Winds: variable direction winds at 2 MPH (2 knots; 1.0 m/s)
Visibility: 4 miles ( 7 km)
Ceiling: 30000 feet AGL
Clouds: few clouds at 2200 feet AGL
broken clouds at 30000 feet AGL
Weather: no significant weather observed at this time

METAR text: WSSS 182300Z 35003KT 270V080 9000 FEW020 BKN300 26/23 Q1010 NOSIG
Conditions at: WSSS (SINGAPORE/CHANGI, SG) observed 2300 UTC 18 March 2019
Temperature: 26.0°C (79°F)
Dewpoint: 23.0°C (73°F) [RH = 84%]
Pressure (altimeter): 29.82 inches Hg (1010.0 mb)
Winds: from the N (350 degrees) at 3 MPH (3 knots; 1.5 m/s)
Visibility: 6 miles ( 9 km)
Ceiling: 30000 feet AGL
Clouds: few clouds at 2000 feet AGL
broken clouds at 30000 feet AGL
Weather: no significant weather observed at this time

METAR text: WSSS 182230Z 01003KT 340V040 CAVOK 26/22 Q1010 NOSIG
Conditions at: WSSS (SINGAPORE/CHANGI, SG) observed 2230 UTC 18 March 2019
Temperature: 26.0°C (79°F)
Dewpoint: 22.0°C (72°F) [RH = 79%]
Pressure (altimeter): 29.82 inches Hg (1010.0 mb)
Winds: from the N (10 degrees) at 3 MPH (3 knots; 1.5 m/s)
Visibility: 6 or more miles (10+ km)
Ceiling: ceiling and visibility are OK
Clouds: unknown
Weather: no significant weather observed at this time

METAR text: WSSS 182200Z VRB02KT CAVOK 26/22 Q1010 NOSIG
Conditions at: WSSS (SINGAPORE/CHANGI, SG) observed 2200 UTC 18 March 2019
Temperature: 26.0°C (79°F)
Dewpoint: 22.0°C (72°F) [RH = 79%]
Pressure (altimeter): 29.82 inches Hg (1010.0 mb)
Winds: variable direction winds at 2 MPH (2 knots; 1.0 m/s)
Visibility: 6 or more miles (10+ km)
Ceiling: ceiling and visibility are OK
Clouds: unknown
Weather: no significant weather observed at this time

METAR text: WSSS 182130Z VRB02KT CAVOK 26/22 Q1010 NOSIG
Conditions at: WSSS (SINGAPORE/CHANGI, SG) observed 2130 UTC 18 March 2019
Temperature: 26.0°C (79°F)
Dewpoint: 22.0°C (72°F) [RH = 79%]
Pressure (altimeter): 29.82 inches Hg (1010.0 mb)
Winds: variable direction winds at 2 MPH (2 knots; 1.0 m/s)
Visibility: 6 or more miles (10+ km)
Ceiling: ceiling and visibility are OK
Clouds: unknown
Weather: no significant weather observed at this time

METAR text: WSSS 182100Z VRB02KT CAVOK 26/22 Q1010 NOSIG
Conditions at: WSSS (SINGAPORE/CHANGI, SG) observed 2100 UTC 18 March 2019
Temperature: 26.0°C (79°F)
Dewpoint: 22.0°C (72°F) [RH = 79%]
Pressure (altimeter): 29.82 inches Hg (1010.0 mb)
Winds: variable direction winds at 2 MPH (2 knots; 1.0 m/s)
Visibility: 6 or more miles (10+ km)
Ceiling: ceiling and visibility are OK
Clouds: unknown
Weather: no significant weather observed at this time

METAR text: WSSS 182030Z VRB01KT CAVOK 26/22 Q1010 NOSIG
Conditions at: WSSS (SINGAPORE/CHANGI, SG) observed 2030 UTC 18 March 2019
Temperature: 26.0°C (79°F)
Dewpoint: 22.0°C (72°F) [RH = 79%]
Pressure (altimeter): 29.82 inches Hg (1010.0 mb)
Winds: variable direction winds at 1 MPH (1 knots; 0.5 m/s)
Visibility: 6 or more miles (10+ km)
Ceiling: ceiling and visibility are OK
Clouds: unknown
Weather: no significant weather observed at this time

METAR text: WSSS 182000Z VRB02KT CAVOK 26/22 Q1010 NOSIG
Conditions at: WSSS (SINGAPORE/CHANGI, SG) observed 2000 UTC 18 March 2019
Temperature: 26.0°C (79°F)
Dewpoint: 22.0°C (72°F) [RH = 79%]
Pressure (altimeter): 29.82 inches Hg (1010.0 mb)
Winds: variable direction winds at 2 MPH (2 knots; 1.0 m/s)
Visibility: 6 or more miles (10+ km)
Ceiling: ceiling and visibility are OK
Clouds: unknown
Weather: no significant weather observed at this time

METAR text: WSSS 181930Z VRB02KT CAVOK 26/22 Q1011 NOSIG
Conditions at: WSSS (SINGAPORE/CHANGI, SG) observed 1930 UTC 18 March 2019
Temperature: 26.0°C (79°F)
Dewpoint: 22.0°C (72°F) [RH = 79%]
Pressure (altimeter): 29.85 inches Hg (1011.0 mb)
Winds: variable direction winds at 2 MPH (2 knots; 1.0 m/s)
Visibility: 6 or more miles (10+ km)
Ceiling: ceiling and visibility are OK
Clouds: unknown
Weather: no significant weather observed at this time

METAR text: WSSS 181900Z VRB02KT CAVOK 26/22 Q1011 NOSIG
Conditions at: WSSS (SINGAPORE/CHANGI, SG) observed 1900 UTC 18 March 2019
Temperature: 26.0°C (79°F)
Dewpoint: 22.0°C (72°F) [RH = 79%]
Pressure (altimeter): 29.85 inches Hg (1011.0 mb)
Winds: variable direction winds at 2 MPH (2 knots; 1.0 m/s)
Visibility: 6 or more miles (10+ km)
Ceiling: ceiling and visibility are OK
Clouds: unknown
Weather: no significant weather observed at this time

Forecast for: WSSS (SINGAPORE/CHANGI, SG)
Text: TAF WSSS 200500Z 2006/2112 01010KT 9999 SCT020
Forecast period: 0600 UTC 20 March 2019 to 1200 UTC 21 March 2019
Forecast type: FROM: standard forecast or significant change
Winds: from the N (10 degrees) at 12 MPH (10 knots; 5.1 m/s)
Visibility: 6 or more miles 10+ km)
Ceiling: at least 12,000 feet AGL
Clouds: scattered clouds at 2000 feet AGL
Weather: no significant weather forecast for this period